Time;durP1;ratioP1;P1;durP2;ratioP2;P2;SDS_P1;SDS_P2;PMS_P1;PMS_P2;Temp;Humidity;BMP_temperature;BMP_pressure;BME280_temperature;BME280_humidity;BME280_pressure;Samples;Min_cycle;Max_cycle;Signal;HPM_P1;HPM_P2
2022/06/02 00:01:26;;;;;;;1.20;0.65;;;16.30;57.70;;;;;;5014750;28;20113;-88
2022/06/02 00:03:59;;;;;;;1.08;0.68;;;16.30;57.90;;;;;;5009853;28;20647;-89
2022/06/02 00:06:43;;;;;;;0.90;0.60;;;16.30;57.70;;;;;;5014111;28;20108;-88
2022/06/02 00:09:35;;;;;;;1.05;0.60;;;16.30;57.90;;;;;;5010089;28;20034;-89
2022/06/02 00:12:25;;;;;;;2.00;0.70;;;16.30;58.00;;;;;;5004757;28;20044;-88
2022/06/02 00:15:15;;;;;;;0.90;0.60;;;16.20;57.90;;;;;;5039868;28;20037;-89
2022/06/02 00:18:04;;;;;;;1.10;0.60;;;16.20;58.20;;;;;;5028758;28;20120;-89
2022/06/02 00:20:42;;;;;;;0.57;0.57;;;16.20;58.10;;;;;;5021341;28;20442;-89
2022/06/02 00:23:35;;;;;;;1.77;0.70;;;16.20;58.20;;;;;;5018234;28;20029;-88
2022/06/02 00:26:06;;;;;;;0.70;0.70;;;16.20;58.30;;;;;;5008820;28;20036;-88
2022/06/02 00:28:48;;;;;;;2.27;0.83;;;16.20;58.50;;;;;;5019137;28;20060;-89
2022/06/02 00:31:20;;;;;;;0.88;0.60;;;16.20;58.50;;;;;;5012856;28;20359;-89
2022/06/02 00:34:22;;;;;;;1.15;0.88;;;16.20;58.60;;;;;;5024831;28;20067;-89
2022/06/02 00:37:09;;;;;;;2.53;0.80;;;16.20;58.70;;;;;;5056585;28;20085;-89
2022/06/02 00:39:38;;;;;;;2.28;0.80;;;16.20;58.80;;;;;;5057739;28;20014;-86
2022/06/02 00:42:24;;;;;;;0.75;0.50;;;16.20;58.90;;;;;;5036411;28;20045;-88
2022/06/02 00:44:59;;;;;;;3.22;0.70;;;16.20;59.10;;;;;;5015048;28;20119;-90
2022/06/02 00:47:30;;;;;;;0.60;0.60;;;16.10;59.10;;;;;;5036965;28;20033;-89
2022/06/02 00:50:10;;;;;;;0.75;0.70;;;16.10;59.10;;;;;;5042196;28;20024;-89
2022/06/02 00:53:02;;;;;;;0.90;0.77;;;16.00;59.30;;;;;;5023423;28;20037;-89
2022/06/02 00:58:51;;;;;;;0.80;0.63;;;15.90;59.60;;;;;;5028199;28;20029;-89
2022/06/02 01:01:32;;;;;;;0.80;0.80;;;15.70;59.50;;;;;;5011512;28;20418;-90
2022/06/02 01:04:01;;;;;;;0.70;0.70;;;15.60;59.60;;;;;;5018976;28;20029;-88
2022/06/02 01:06:35;;;;;;;0.98;0.82;;;15.50;59.80;;;;;;5021092;28;20417;-89
2022/06/02 01:09:25;;;;;;;1.75;0.80;;;15.50;59.90;;;;;;5017518;28;20461;-89
2022/06/02 01:12:01;;;;;;;1.77;0.85;;;15.40;60.20;;;;;;5017306;28;20176;-89
2022/06/02 01:14:57;;;;;;;1.52;0.85;;;15.40;60.50;;;;;;5004944;28;20386;-89
2022/06/02 01:17:50;;;;;;;3.35;0.63;;;15.40;60.70;;;;;;5037268;28;20056;-89
2022/06/02 01:20:29;;;;;;;;;;;15.30;60.70;;;;;;4996673;28;20057;-89
2022/06/02 01:23:21;;;;;;;2.40;0.70;;;15.30;59.80;;;;;;5008895;28;19923;-89
2022/06/02 01:26:08;;;;;;;1.37;0.60;;;15.30;60.30;;;;;;5017866;28;20021;-89
2022/06/02 01:28:47;;;;;;;1.77;0.90;;;15.30;60.60;;;;;;5014850;28;20060;-89
2022/06/02 01:31:24;;;;;;;1.42;0.77;;;15.30;60.70;;;;;;5012782;28;20125;-89
2022/06/02 01:34:20;;;;;;;2.15;0.90;;;15.20;60.80;;;;;;5013936;28;20021;-89
2022/06/02 01:37:10;;;;;;;2.58;0.90;;;15.20;60.90;;;;;;5013634;28;20044;-89
2022/06/02 01:39:53;;;;;;;0.82;0.82;;;15.10;60.90;;;;;;5010801;28;20040;-88
2022/06/02 01:42:47;;;;;;;2.63;0.88;;;15.10;61.00;;;;;;5003099;28;20105;-89
2022/06/02 01:45:24;;;;;;;1.00;0.85;;;15.00;61.40;;;;;;5031562;28;20017;-89
2022/06/02 01:48:19;;;;;;;1.17;0.75;;;15.10;61.50;;;;;;5016646;28;20027;-87
2022/06/02 01:50:59;;;;;;;0.93;0.77;;;15.00;61.60;;;;;;5040885;28;20025;-86
2022/06/02 01:53:55;;;;;;;0.95;0.90;;;15.10;61.70;;;;;;5045977;28;20033;-85
2022/06/02 01:56:41;;;;;;;1.45;0.75;;;15.10;61.90;;;;;;5050330;28;20024;-88
2022/06/02 01:59:07;;;;;;;0.90;0.90;;;15.10;61.80;;;;;;5040287;28;20025;-87
2022/06/02 02:02:07;;;;;;;1.50;1.00;;;15.10;61.60;;;;;;5068108;28;20041;-86
2022/06/02 02:04:58;;;;;;;1.00;0.88;;;15.10;62.00;;;;;;5032098;28;20044;-87
2022/06/02 02:07:48;;;;;;;1.15;0.85;;;15.00;62.00;;;;;;5035159;28;20029;-88
2022/06/02 02:10:29;;;;;;;0.82;0.82;;;15.00;62.20;;;;;;5045245;28;20077;-88
2022/06/02 02:13:11;;;;;;;2.70;0.90;;;15.00;62.20;;;;;;5045231;28;20142;-87
2022/06/02 02:15:52;;;;;;;1.80;0.90;;;15.00;62.20;;;;;;5019748;28;20014;-89
2022/06/02 02:18:35;;;;;;;2.67;1.00;;;14.90;62.10;;;;;;5032491;28;20038;-87
2022/06/02 02:21:15;;;;;;;1.70;0.70;;;14.90;62.30;;;;;;5039403;28;20863;-91
2022/06/02 02:23:52;;;;;;;1.25;0.90;;;14.80;62.40;;;;;;5041060;28;20449;-86
2022/06/02 02:26:36;;;;;;;0.93;0.80;;;14.80;62.70;;;;;;5042508;28;20031;-90
2022/06/02 02:29:27;;;;;;;0.95;0.95;;;14.70;62.70;;;;;;5044827;28;20028;-90
2022/06/02 02:32:04;;;;;;;1.50;0.80;;;14.70;62.90;;;;;;5013715;28;20049;-91
2022/06/02 02:34:43;;;;;;;1.38;1.00;;;14.70;62.90;;;;;;5012546;28;20022;-92
2022/06/02 02:37:08;;;;;;;2.63;1.10;;;14.60;62.90;;;;;;5022634;28;20057;-91
2022/06/02 02:39:56;;;;;;;1.20;1.10;;;14.60;63.00;;;;;;5017726;28;20068;-90
2022/06/02 02:43:05;;;;;;;0.80;0.70;;;14.50;63.20;;;;;;5024447;28;20029;-91
2022/06/02 02:45:46;;;;;;;1.13;1.02;;;14.50;63.20;;;;;;5015709;28;20538;-91
2022/06/02 02:48:33;;;;;;;1.33;1.20;;;14.50;63.30;;;;;;5025234;28;20051;-88
2022/06/02 02:51:26;;;;;;;1.95;1.25;;;14.40;63.20;;;;;;5007398;28;20021;-90
2022/06/02 02:53:56;;;;;;;;;;;14.40;63.40;;;;;;4999118;28;20457;-90
2022/06/02 02:56:35;;;;;;;1.88;1.20;;;14.40;62.70;;;;;;5043213;28;19905;-89
2022/06/02 02:59:30;;;;;;;1.25;1.10;;;14.40;63.30;;;;;;5016224;28;20079;-90
2022/06/02 03:02:04;;;;;;;1.65;1.08;;;14.40;63.40;;;;;;5010872;28;20483;-90
2022/06/02 03:04:48;;;;;;;2.25;1.20;;;14.40;63.30;;;;;;4994164;28;20028;-90
2022/06/02 03:07:14;;;;;;;1.80;1.20;;;14.30;63.70;;;;;;4996456;28;20053;-90
2022/06/02 03:10:04;;;;;;;1.75;1.20;;;14.30;63.70;;;;;;5031622;28;20029;-89
2022/06/02 03:12:48;;;;;;;3.30;1.52;;;14.30;64.00;;;;;;5004852;28;20524;-88
2022/06/02 03:15:32;;;;;;;1.40;1.10;;;14.20;63.80;;;;;;5014990;28;20033;-88
2022/06/02 03:18:25;;;;;;;1.63;1.20;;;14.20;64.20;;;;;;5012850;28;20018;-89
2022/06/02 03:21:08;;;;;;;2.88;1.30;;;14.20;64.40;;;;;;4995010;28;20026;-90
2022/06/02 03:23:49;;;;;;;1.98;1.35;;;14.20;64.40;;;;;;5001984;28;20100;-90
2022/06/02 03:26:23;;;;;;;1.58;1.33;;;14.20;64.60;;;;;;4999848;28;20177;-91
2022/06/02 03:29:06;;;;;;;2.30;1.33;;;14.30;64.50;;;;;;5011543;28;20069;-90
2022/06/02 03:31:37;;;;;;;1.25;1.05;;;14.30;64.60;;;;;;5008461;28;20053;-90
2022/06/02 03:34:13;;;;;;;1.27;1.17;;;14.30;64.50;;;;;;4992760;28;20088;-90
2022/06/02 03:37:00;;;;;;;1.30;1.20;;;14.20;64.60;;;;;;5014997;28;20336;-91
2022/06/02 03:40:02;;;;;;;1.75;1.20;;;14.20;64.80;;;;;;4994012;28;20018;-89
2022/06/02 03:43:03;;;;;;;3.47;1.47;;;14.20;64.80;;;;;;4979714;28;20457;-89
2022/06/02 03:45:37;;;;;;;1.27;1.17;;;14.20;64.80;;;;;;4985837;28;20284;-90
2022/06/02 03:48:16;;;;;;;1.35;1.25;;;14.20;64.80;;;;;;4991706;28;20176;-90
2022/06/02 03:50:59;;;;;;;2.10;1.20;;;14.20;65.00;;;;;;5011014;28;20502;-89
2022/06/02 03:54:04;;;;;;;1.20;1.10;;;14.20;65.10;;;;;;5006045;28;20026;-91
2022/06/02 03:57:00;;;;;;;1.98;1.15;;;14.20;65.30;;;;;;4979362;28;20040;-90
2022/06/02 04:00:00;;;;;;;1.90;1.48;;;14.10;65.20;;;;;;4987251;28;20080;-90
2022/06/02 04:03:03;;;;;;;1.95;1.38;;;14.20;65.40;;;;;;4987850;28;20072;-89
2022/06/02 04:06:03;;;;;;;1.55;1.45;;;14.20;65.40;;;;;;4995685;28;20022;-90
2022/06/02 04:08:50;;;;;;;5.13;1.40;;;14.20;65.50;;;;;;4997942;28;20026;-90
2022/06/02 04:14:59;;;;;;;1.75;1.52;;;14.20;65.70;;;;;;5012814;28;20061;-90
2022/06/02 04:17:26;;;;;;;;;;;14.10;65.70;;;;;;5004937;28;20037;-90
2022/06/02 04:22:36;;;;;;;2.58;1.50;;;14.10;65.30;;;;;;5014506;28;20033;-90
2022/06/02 04:25:07;;;;;;;2.83;1.40;;;14.10;65.60;;;;;;4996153;28;20022;-90
2022/06/02 04:27:42;;;;;;;2.30;1.38;;;14.10;65.90;;;;;;5014822;28;20021;-88
2022/06/02 04:30:21;;;;;;;1.90;1.40;;;14.10;66.00;;;;;;5014393;28;20041;-90
2022/06/02 04:33:08;;;;;;;2.22;1.48;;;14.20;66.40;;;;;;4996294;28;20478;-88
2022/06/02 04:35:59;;;;;;;1.83;1.42;;;14.20;66.50;;;;;;4985963;28;20026;-90
2022/06/02 04:38:48;;;;;;;3.45;1.52;;;14.30;66.40;;;;;;5004133;28;20409;-89
2022/06/02 04:41:29;;;;;;;3.97;1.50;;;14.30;66.50;;;;;;4996255;28;20030;-90
2022/06/02 04:44:17;;;;;;;1.83;1.70;;;14.50;66.50;;;;;;4994449;28;20119;-91
2022/06/02 04:47:23;;;;;;;1.88;1.65;;;14.50;66.50;;;;;;5015197;28;20084;-90
2022/06/02 04:49:55;;;;;;;3.17;1.73;;;14.50;66.50;;;;;;4968801;28;20101;-89
2022/06/02 04:52:32;;;;;;;1.40;1.30;;;14.60;66.30;;;;;;5008332;28;20025;-90
2022/06/02 04:55:03;;;;;;;2.92;1.98;;;14.70;66.30;;;;;;5060224;23;20041;-88
2022/06/02 04:58:03;;;;;;;1.83;1.73;;;14.80;66.30;;;;;;5056996;28;20092;-88
2022/06/02 05:00:43;;;;;;;3.30;1.80;;;14.80;66.10;;;;;;5049568;28;20035;-89
2022/06/02 05:03:23;;;;;;;2.38;1.52;;;14.90;66.10;;;;;;5067211;28;20105;-86
2022/06/02 05:06:15;;;;;;;3.08;1.80;;;15.00;66.00;;;;;;5071361;28;20027;-89
2022/06/02 05:09:05;;;;;;;2.45;1.63;;;15.10;66.00;;;;;;5050187;28;20080;-89
2022/06/02 05:11:51;;;;;;;1.75;1.65;;;15.20;66.60;;;;;;5053292;28;20036;-89
2022/06/02 05:14:35;;;;;;;2.53;1.90;;;15.30;66.10;;;;;;5061495;28;20012;-91
2022/06/02 05:17:39;;;;;;;4.15;2.00;;;15.40;66.00;;;;;;5059259;28;20039;-91
2022/06/02 05:20:25;;;;;;;2.67;1.92;;;15.40;65.80;;;;;;5052937;28;20567;-90
2022/06/02 05:23:19;;;;;;;4.35;1.77;;;15.50;65.70;;;;;;5072138;28;20025;-91
2022/06/02 05:26:27;;;;;;;3.03;1.70;;;15.70;65.70;;;;;;5054376;28;20077;-90
2022/06/02 05:29:15;;;;;;;4.97;2.08;;;15.80;65.60;;;;;;5050372;28;20029;-87
2022/06/02 05:32:30;;;;;;;3.55;2.10;;;15.80;65.50;;;;;;5055839;28;20653;-91
2022/06/02 05:35:31;;;;;;;3.47;2.00;;;15.90;65.60;;;;;;5055631;28;20837;-89
2022/06/02 05:38:16;;;;;;;5.82;2.05;;;15.90;65.50;;;;;;5037896;28;20154;-87
2022/06/02 05:41:05;;;;;;;6.80;2.13;;;16.00;65.50;;;;;;5049129;28;20021;-88
2022/06/02 05:44:05;;;;;;;2.10;1.90;;;16.00;65.40;;;;;;5054003;28;20051;-89
2022/06/02 05:47:07;;;;;;;4.63;1.90;;;16.10;65.50;;;;;;5063647;28;20020;-91
2022/06/02 05:49:45;;;;;;;2.28;1.95;;;16.10;65.10;;;;;;5055649;28;20093;-90
2022/06/02 05:52:47;;;;;;;2.80;2.13;;;16.20;65.30;;;;;;5055556;28;20115;-90
2022/06/02 05:55:30;;;;;;;3.45;2.05;;;16.20;65.30;;;;;;4975628;28;20030;-89
2022/06/02 05:57:56;;;;;;;3.05;1.95;;;16.10;65.40;;;;;;5043229;28;20036;-88
2022/06/02 06:00:40;;;;;;;2.40;2.10;;;16.00;65.40;;;;;;5051949;28;20373;-87
2022/06/02 06:03:38;;;;;;;3.25;1.92;;;16.00;65.40;;;;;;5069314;28;20876;-88
2022/06/02 06:06:23;;;;;;;3.65;2.20;;;16.00;65.00;;;;;;5049689;28;20174;-88
2022/06/02 06:09:03;;;;;;;2.05;1.85;;;15.90;64.80;;;;;;5053415;28;20036;-87
2022/06/02 06:11:42;;;;;;;3.72;1.95;;;15.80;65.10;;;;;;5052935;28;20043;-88
2022/06/02 06:14:31;;;;;;;3.65;1.92;;;15.80;65.10;;;;;;5053845;28;20112;-86
2022/06/02 06:17:16;;;;;;;6.00;1.70;;;15.80;64.80;;;;;;5066077;28;20107;-89
2022/06/02 06:20:19;;;;;;;3.83;2.05;;;15.70;64.90;;;;;;5054014;28;20020;-88
2022/06/02 06:23:29;;;;;;;2.40;1.83;;;15.70;64.90;;;;;;5034920;28;20028;-88
2022/06/02 06:26:24;;;;;;;3.17;1.90;;;15.70;64.70;;;;;;5043044;28;20032;-85
2022/06/02 06:29:29;;;;;;;2.15;1.88;;;15.70;64.80;;;;;;5064451;28;20025;-86
2022/06/02 06:32:27;;;;;;;1.80;1.70;;;15.70;64.70;;;;;;5055991;28;20055;-88
2022/06/02 06:35:35;;;;;;;3.55;3.20;;;15.70;64.50;;;;;;5024057;28;20071;-88
2022/06/02 06:38:35;;;;;;;3.28;2.03;;;15.80;64.60;;;;;;5050118;28;20039;-88
2022/06/02 06:41:44;;;;;;;1.65;1.50;;;15.80;64.40;;;;;;5039098;28;20029;-88
2022/06/02 06:44:18;;;;;;;2.45;1.70;;;15.80;64.20;;;;;;5026273;28;20182;-88
2022/06/02 06:46:44;;;;;;;1.98;1.67;;;15.90;64.30;;;;;;5062688;28;20021;-88
2022/06/02 06:49:33;;;;;;;2.97;1.90;;;16.00;64.00;;;;;;5047516;28;20119;-87
2022/06/02 06:52:30;;;;;;;2.20;1.70;;;16.10;63.80;;;;;;5045691;28;20501;-87
2022/06/02 06:55:07;;;;;;;2.22;1.40;;;16.10;63.50;;;;;;5047270;28;20532;-88
2022/06/02 06:57:47;;;;;;;2.83;1.95;;;16.30;63.40;;;;;;5053978;28;20020;-88
2022/06/02 07:00:19;;;;;;;1.98;1.73;;;16.40;63.30;;;;;;5072229;28;20095;-86
2022/06/02 07:03:06;;;;;;;2.65;2.05;;;16.50;63.10;;;;;;5053932;28;20025;-88
2022/06/02 07:05:44;;;;;;;1.67;1.58;;;16.70;62.60;;;;;;5044413;28;20051;-87
2022/06/02 07:08:25;;;;;;;2.70;1.60;;;16.80;62.20;;;;;;5054105;28;20043;-89
2022/06/02 07:14:51;;;;;;;3.13;2.70;;;17.30;62.90;;;;;;5070341;28;20483;-88
2022/06/02 07:17:20;;;;;;;2.45;1.85;;;17.70;61.70;;;;;;4988932;28;20034;-88
2022/06/02 07:20:04;;;;;;;3.58;1.90;;;18.10;61.20;;;;;;5046030;28;20029;-87
2022/06/02 07:22:45;;;;;;;1.70;1.60;;;18.30;60.90;;;;;;5053464;28;20112;-87
2022/06/02 07:25:23;;;;;;;2.25;1.60;;;18.50;60.50;;;;;;5050861;28;20031;-88
2022/06/02 07:28:08;;;;;;;1.83;1.73;;;18.90;60.20;;;;;;5035595;28;20029;-89
2022/06/02 07:30:42;;;;;;;1.70;1.60;;;19.10;59.70;;;;;;5037902;28;20385;-87
2022/06/02 07:33:23;;;;;;;3.33;1.85;;;19.30;59.50;;;;;;5055565;28;20021;-87
2022/06/02 07:36:10;;;;;;;3.33;1.70;;;19.50;59.30;;;;;;5052170;28;20199;-89
2022/06/02 07:39:14;;;;;;;3.33;1.80;;;19.70;58.90;;;;;;5056954;28;20485;-87
2022/06/02 07:42:05;;;;;;;5.13;1.70;;;20.00;58.80;;;;;;5057776;28;20028;-87
2022/06/02 07:45:03;;;;;;;1.88;1.70;;;20.30;58.60;;;;;;5056117;28;20021;-87
2022/06/02 07:47:57;;;;;;;2.00;1.73;;;20.60;58.30;;;;;;5053294;28;20032;-90
2022/06/02 07:50:32;;;;;;;1.63;1.52;;;20.80;58.10;;;;;;5074345;28;20028;-88
2022/06/02 07:53:15;;;;;;;2.25;2.03;;;21.10;57.50;;;;;;5057231;28;20067;-87
2022/06/02 07:55:40;;;;;;;;;;;21.30;56.90;;;;;;5075622;28;20024;-88
2022/06/02 07:58:16;;;;;;;2.83;1.40;;;21.50;57.50;;;;;;5051415;28;19999;-89
2022/06/02 08:00:53;;;;;;;1.30;1.20;;;21.70;56.50;;;;;;5039247;28;20078;-88
2022/06/02 08:03:41;;;;;;;3.05;1.33;;;21.80;55.50;;;;;;5038708;28;20033;-88
2022/06/02 08:06:17;;;;;;;1.48;1.38;;;21.90;55.50;;;;;;5053826;28;20465;-87
2022/06/02 08:08:56;;;;;;;2.15;1.20;;;22.10;55.20;;;;;;5057815;28;20128;-88
2022/06/02 08:11:48;;;;;;;1.90;1.13;;;22.20;55.00;;;;;;5057680;28;20020;-88
2022/06/02 08:14:41;;;;;;;1.40;1.10;;;22.50;54.80;;;;;;5052283;28;20130;-87
2022/06/02 08:17:16;;;;;;;2.28;1.20;;;22.60;54.50;;;;;;5053913;28;20085;-88
2022/06/02 08:19:57;;;;;;;3.45;1.63;;;22.80;54.30;;;;;;5055083;28;20017;-88
2022/06/02 08:22:52;;;;;;;1.15;1.05;;;23.00;54.20;;;;;;5053410;28;20523;-88
2022/06/02 08:25:22;;;;;;;1.85;1.00;;;23.20;53.40;;;;;;5030151;28;20512;-88
2022/06/02 08:28:03;;;;;;;1.58;1.33;;;23.30;53.20;;;;;;5048712;28;20031;-89
2022/06/02 08:30:33;;;;;;;3.17;1.58;;;23.40;52.50;;;;;;5074555;28;20449;-89
2022/06/02 08:33:13;;;;;;;1.80;1.02;;;23.60;52.10;;;;;;5057465;28;20032;-87
2022/06/02 08:36:10;;;;;;;1.10;1.08;;;23.70;51.90;;;;;;5055218;28;20480;-88
2022/06/02 08:38:46;;;;;;;1.98;1.00;;;23.80;51.50;;;;;;5025961;28;20036;-88
2022/06/02 08:41:33;;;;;;;3.70;0.88;;;24.00;51.30;;;;;;5057651;28;20024;-88
2022/06/02 08:44:11;;;;;;;1.00;0.90;;;24.00;50.50;;;;;;5050077;28;20066;-89
2022/06/02 08:46:46;;;;;;;1.20;1.10;;;24.20;50.80;;;;;;5047995;28;20025;-89
2022/06/02 08:49:49;;;;;;;1.10;0.98;;;24.40;50.50;;;;;;5038808;28;20036;-87
2022/06/02 08:52:31;;;;;;;0.95;0.73;;;24.60;49.90;;;;;;5058689;28;20047;-87
2022/06/02 08:55:22;;;;;;;2.15;1.10;;;24.70;48.80;;;;;;5073887;28;20146;-87
2022/06/02 08:58:08;;;;;;;1.00;1.00;;;24.80;49.00;;;;;;5059409;28;20033;-89
2022/06/02 09:01:05;;;;;;;0.70;0.70;;;24.90;48.70;;;;;;5075382;28;20108;-88
2022/06/02 09:03:53;;;;;;;0.75;0.75;;;25.10;48.70;;;;;;5057618;28;20121;-89
2022/06/02 09:06:42;;;;;;;1.25;0.80;;;25.30;49.00;;;;;;5057890;28;20427;-88
2022/06/02 09:09:35;;;;;;;1.98;0.82;;;25.40;48.20;;;;;;5057264;28;20025;-88
2022/06/02 09:12:25;;;;;;;0.70;0.70;;;25.60;48.20;;;;;;5052855;28;20063;-87
2022/06/02 09:15:23;;;;;;;1.27;0.77;;;25.80;47.80;;;;;;5057020;28;20028;-90
2022/06/02 09:18:12;;;;;;;3.70;0.73;;;26.20;47.50;;;;;;5038423;28;20116;-89
2022/06/02 09:21:15;;;;;;;2.00;1.20;;;26.60;47.50;;;;;;5056194;28;20052;-90
2022/06/02 09:23:54;;;;;;;1.80;0.70;;;27.10;47.00;;;;;;5050369;28;20523;-89
2022/06/02 09:26:47;;;;;;;2.47;1.10;;;27.60;46.30;;;;;;5057325;28;20029;-89
2022/06/02 09:29:24;;;;;;;2.15;0.70;;;28.20;46.00;;;;;;5054427;28;20194;-90
2022/06/02 09:32:07;;;;;;;0.70;0.70;;;29.00;44.80;;;;;;5057879;28;20107;-88
2022/06/02 09:34:52;;;;;;;1.00;0.88;;;29.80;43.90;;;;;;5050239;28;20025;-87
2022/06/02 09:37:35;;;;;;;1.30;1.00;;;31.00;43.70;;;;;;5068209;28;20020;-89
2022/06/02 09:40:15;;;;;;;2.13;1.00;;;31.80;42.00;;;;;;5051604;28;20385;-88
2022/06/02 09:43:19;;;;;;;4.15;1.00;;;32.20;40.70;;;;;;5049603;28;20025;-89
2022/06/02 09:46:12;;;;;;;1.92;0.70;;;32.70;40.10;;;;;;5055313;28;20028;-89
2022/06/02 09:48:47;;;;;;;1.67;0.60;;;33.40;40.10;;;;;;5041284;28;20024;-89
2022/06/02 09:51:33;;;;;;;0.77;0.77;;;34.00;39.50;;;;;;5073348;28;20035;-88
2022/06/02 09:54:08;;;;;;;1.27;0.80;;;34.60;38.80;;;;;;5072483;28;20047;-89
2022/06/02 09:57:55;;;;;;;1.15;0.70;;;34.80;38.40;;;;;;5055244;28;20028;-89
2022/06/02 10:00:05;;;;;;;3.13;0.80;;;34.90;37.20;;;;;;5071675;28;20033;-89
2022/06/02 10:02:43;;;;;;;6.57;1.30;;;34.50;37.00;;;;;;5056579;28;20040;-89
2022/06/02 10:05:25;;;;;;;1.08;0.70;;;34.30;37.30;;;;;;5050329;28;20032;-89
2022/06/02 10:08:35;;;;;;;9.23;6.82;;;34.30;37.40;;;;;;5056835;28;20028;-89
2022/06/02 10:11:15;;;;;;;2.30;0.80;;;34.20;37.80;;;;;;5032255;28;20459;-89
2022/06/02 10:14:06;;;;;;;2.85;0.70;;;34.30;37.50;;;;;;5048404;28;20166;-89
2022/06/02 10:17:03;;;;;;;3.20;1.00;;;34.30;37.50;;;;;;5047870;28;20043;-90
2022/06/02 10:20:07;;;;;;;1.20;0.90;;;34.60;37.50;;;;;;5072004;28;20301;-89
2022/06/02 10:22:46;;;;;;;3.55;0.80;;;35.20;37.30;;;;;;5054362;28;20056;-89
2022/06/02 10:25:29;;;;;;;1.67;0.80;;;34.90;36.80;;;;;;5066920;28;20048;-89
2022/06/02 10:27:57;;;;;;;1.98;0.90;;;34.20;37.20;;;;;;5071053;28;20028;-89
2022/06/02 10:30:29;;;;;;;1.20;0.63;;;33.90;37.20;;;;;;5050339;28;20024;-89
2022/06/02 10:33:19;;;;;;;6.20;0.90;;;33.50;37.60;;;;;;5054610;28;20546;-89
2022/06/02 10:36:20;;;;;;;0.82;0.60;;;33.70;37.70;;;;;;5052172;28;20070;-89
2022/06/02 10:39:24;;;;;;;0.95;0.90;;;33.70;37.70;;;;;;5034617;28;20029;-89
2022/06/02 10:42:12;;;;;;;1.33;0.75;;;33.40;38.00;;;;;;5049993;28;20165;-89
2022/06/02 10:45:17;;;;;;;1.48;0.90;;;33.00;38.50;;;;;;5053403;28;20558;-90
2022/06/02 10:48:07;;;;;;;0.82;0.77;;;32.40;38.70;;;;;;5072119;28;20078;-90
2022/06/02 10:51:08;;;;;;;1.15;0.80;;;31.60;39.10;;;;;;5053358;28;20476;-88
2022/06/02 10:54:11;;;;;;;3.60;1.35;;;30.90;39.40;;;;;;5084213;22;20033;-90
2022/06/02 10:57:04;;;;;;;4.30;1.10;;;30.30;40.10;;;;;;4975458;28;20050;-90
2022/06/02 11:00:08;;;;;;;2.05;0.90;;;30.00;40.40;;;;;;4982559;28;20073;-90
2022/06/02 11:03:26;;;;;;;1.35;0.90;;;29.90;41.20;;;;;;4975677;28;20030;-89
2022/06/02 11:06:17;;;;;;;1.92;0.90;;;29.60;41.20;;;;;;4993216;28;20518;-89
2022/06/02 11:09:07;;;;;;;6.00;1.30;;;29.30;41.40;;;;;;4995149;28;20034;-89
2022/06/02 11:11:51;;;;;;;1.45;0.80;;;29.10;41.30;;;;;;5001438;28;20032;-90
2022/06/02 11:14:38;;;;;;;1.10;0.90;;;28.90;41.30;;;;;;4988948;28;20023;-89
2022/06/02 11:17:15;;;;;;;3.88;0.90;;;28.60;41.20;;;;;;4987173;28;20032;-90
2022/06/02 11:20:18;;;;;;;3.08;1.42;;;28.40;41.90;;;;;;4997490;28;20471;-90
2022/06/02 11:22:59;;;;;;;1.00;0.80;;;28.20;41.60;;;;;;5011764;28;20022;-90
2022/06/02 11:25:43;;;;;;;2.40;0.75;;;27.90;42.10;;;;;;5011305;28;20077;-90
2022/06/02 11:28:18;;;;;;;2.13;1.10;;;27.70;42.50;;;;;;4994635;28;20482;-90
2022/06/02 11:31:18;;;;;;;1.17;0.70;;;27.60;42.50;;;;;;4993686;28;20037;-90
2022/06/02 11:34:17;;;;;;;1.63;0.75;;;27.50;42.80;;;;;;4991569;28;20085;-89
2022/06/02 11:37:07;;;;;;;1.95;0.93;;;27.50;43.10;;;;;;4993716;28;20437;-89
2022/06/02 11:40:06;;;;;;;1.20;0.80;;;27.40;42.70;;;;;;4994031;28;20018;-90
2022/06/02 11:42:55;;;;;;;27.60;21.10;;;27.40;43.00;;;;;;4994697;28;20076;-90
2022/06/02 11:45:33;;;;;;;2.53;1.88;;;27.30;43.00;;;;;;4993523;28;20426;-89
2022/06/02 11:47:58;;;;;;;4.18;1.38;;;27.30;43.30;;;;;;4994509;28;20022;-89
2022/06/02 11:51:01;;;;;;;2.25;0.70;;;27.30;43.20;;;;;;4991245;28;20038;-89
2022/06/02 11:53:45;;;;;;;;;;;27.30;43.80;;;;;;4994367;28;20030;-89
2022/06/02 11:56:17;;;;;;;1.48;1.10;;;27.30;43.90;;;;;;4994307;28;19913;-89
2022/06/02 11:59:10;;;;;;;3.40;0.90;;;27.20;43.50;;;;;;4994330;28;20028;-89
2022/06/02 12:01:47;;;;;;;1.55;0.60;;;27.10;43.40;;;;;;4995461;28;20026;-90
2022/06/02 12:04:40;;;;;;;2.30;1.10;;;26.90;43.50;;;;;;4992580;28;20553;-89
2022/06/02 12:07:18;;;;;;;2.55;0.70;;;26.90;43.80;;;;;;4990943;28;20030;-90
2022/06/02 12:10:07;;;;;;;3.50;0.80;;;26.90;44.10;;;;;;5004451;28;20026;-90
2022/06/02 12:12:48;;;;;;;3.28;0.77;;;27.00;44.50;;;;;;4991070;28;20031;-89
2022/06/02 12:15:25;;;;;;;1.27;0.90;;;27.00;44.00;;;;;;4999784;28;20026;-90
2022/06/02 12:18:09;;;;;;;2.47;0.80;;;27.00;44.10;;;;;;4997590;28;20642;-90
2022/06/02 12:20:47;;;;;;;2.17;0.70;;;26.90;44.30;;;;;;4997295;28;20113;-89
2022/06/02 12:23:51;;;;;;;2.47;0.88;;;26.80;44.20;;;;;;5014706;28;20033;-89
2022/06/02 12:26:44;;;;;;;0.73;0.73;;;26.60;43.90;;;;;;4998392;28;20034;-90
2022/06/02 12:29:13;;;;;;;3.30;0.70;;;26.50;44.30;;;;;;4996754;28;20025;-89
2022/06/02 12:32:11;;;;;;;2.65;0.95;;;26.50;44.70;;;;;;4995690;28;20093;-90
2022/06/02 12:35:05;;;;;;;2.78;1.20;;;26.50;44.50;;;;;;4954736;28;20041;-89
2022/06/02 12:37:59;;;;;;;4.30;1.00;;;26.50;44.70;;;;;;4986013;28;20117;-89
2022/06/02 12:40:50;;;;;;;1.60;0.82;;;26.50;44.80;;;;;;5023891;28;20036;-88
2022/06/02 12:43:43;;;;;;;4.30;0.70;;;26.40;44.60;;;;;;5028378;28;20018;-89
2022/06/02 12:46:23;;;;;;;2.00;0.70;;;26.40;45.20;;;;;;5013548;28;20090;-89
2022/06/02 12:49:22;;;;;;;1.92;0.70;;;26.30;45.20;;;;;;4989890;28;20064;-90
2022/06/02 12:52:42;;;;;;;4.53;0.80;;;26.30;45.10;;;;;;5007475;28;20022;-90
2022/06/02 12:55:14;;;;;;;1.48;0.90;;;26.20;45.30;;;;;;4968772;28;20145;-88
2022/06/02 12:58:28;;;;;;;2.70;0.70;;;26.10;45.30;;;;;;4996819;28;20093;-91
2022/06/02 13:00:53;;;;;;;3.38;0.80;;;26.10;45.60;;;;;;4937537;28;20039;-89
2022/06/02 13:03:22;;;;;;;1.73;0.70;;;26.10;45.50;;;;;;5007196;28;20026;-89
2022/06/02 13:06:02;;;;;;;0.85;0.80;;;26.10;45.60;;;;;;5013658;28;20050;-90
2022/06/02 13:08:54;;;;;;;2.63;1.00;;;26.10;45.30;;;;;;5010377;28;20458;-92
2022/06/02 13:11:45;;;;;;;3.10;0.75;;;26.00;45.30;;;;;;4993192;28;20038;-88
2022/06/02 13:14:49;;;;;;;2.73;0.70;;;25.90;45.40;;;;;;4993323;28;20030;-88
2022/06/02 13:17:41;;;;;;;1.92;0.70;;;25.80;45.50;;;;;;4966464;28;20040;-89
2022/06/02 13:20:38;;;;;;;2.03;0.73;;;25.70;45.70;;;;;;4998787;28;20021;-89
2022/06/02 13:23:46;;;;;;;3.35;0.80;;;25.60;45.80;;;;;;4992923;28;20026;-89
2022/06/02 13:26:48;;;;;;;4.28;0.80;;;25.50;45.60;;;;;;4978187;28;20038;-89
2022/06/02 13:29:36;;;;;;;;;;;25.40;46.10;;;;;;4996024;28;20029;-87
2022/06/02 13:32:20;;;;;;;2.78;0.90;;;25.30;46.10;;;;;;4990531;28;19910;-86
2022/06/02 13:35:15;;;;;;;1.60;0.80;;;25.20;46.30;;;;;;5013286;28;20037;-91
2022/06/02 13:38:05;;;;;;;1.83;1.08;;;25.10;46.30;;;;;;4992405;28;20089;-89
2022/06/02 13:40:50;;;;;;;2.92;0.60;;;25.00;46.40;;;;;;5005775;28;20493;-89
2022/06/02 13:43:53;;;;;;;3.03;0.60;;;24.90;46.40;;;;;;4996876;28;20045;-89
2022/06/02 13:46:57;;;;;;;4.18;0.80;;;24.90;46.90;;;;;;5003403;28;20081;-89
2022/06/02 13:49:49;;;;;;;2.78;0.80;;;24.80;46.70;;;;;;4999230;28;20037;-89
2022/06/02 13:52:15;;;;;;;;;;;24.80;46.60;;;;;;5004580;28;20115;-87
2022/06/02 13:58:32;;;;;;;4.70;0.70;;;24.60;47.00;;;;;;5024449;28;20049;-89
2022/06/02 14:01:19;;;;;;;1.83;0.70;;;24.50;47.10;;;;;;4986793;28;20133;-90
2022/06/02 14:04:00;;;;;;;1.88;0.80;;;24.50;47.30;;;;;;5008926;28;20124;-91
2022/06/02 14:06:30;;;;;;;3.10;0.90;;;24.50;47.60;;;;;;4994059;28;20030;-89
2022/06/02 14:09:19;;;;;;;1.05;0.80;;;24.50;47.50;;;;;;4994850;28;20049;-90
2022/06/02 14:12:04;;;;;;;2.38;0.70;;;24.50;48.00;;;;;;5010406;28;20061;-90
2022/06/02 14:14:35;;;;;;;0.65;0.60;;;24.50;47.70;;;;;;5010877;28;20025;-89
2022/06/02 14:17:20;;;;;;;1.63;0.77;;;24.50;48.10;;;;;;5011856;28;20068;-90
2022/06/02 14:19:52;;;;;;;1.50;0.63;;;24.50;48.00;;;;;;4983811;28;20410;-89
2022/06/02 14:22:36;;;;;;;3.80;1.63;;;24.50;47.90;;;;;;5012580;28;20026;-90
2022/06/02 14:25:24;;;;;;;4.25;1.05;;;24.50;48.10;;;;;;4988007;28;20026;-89
2022/06/02 14:28:21;;;;;;;0.80;0.80;;;24.50;48.00;;;;;;4989416;28;20089;-90
2022/06/02 14:31:04;;;;;;;1.48;0.68;;;24.50;48.40;;;;;;5006936;28;20037;-91
2022/06/02 14:33:36;;;;;;;4.45;0.90;;;24.40;48.00;;;;;;4993869;28;20037;-87
2022/06/02 14:36:18;;;;;;;0.90;0.70;;;24.40;48.00;;;;;;4993614;28;20032;-87
2022/06/02 14:39:02;;;;;;;2.95;0.77;;;24.30;48.20;;;;;;5000956;28;20437;-90
2022/06/02 14:42:06;;;;;;;1.55;0.70;;;24.30;48.50;;;;;;4992306;28;20528;-92
2022/06/02 14:45:08;;;;;;;2.58;0.80;;;24.30;48.30;;;;;;4988354;28;20026;-91